createdAt,value
2022-08-30T00:01:14.227Z,0.70
2022-08-30T00:03:46.539Z,0.60
2022-08-30T00:06:15.820Z,0.40
2022-08-30T00:08:44.031Z,0.80
2022-08-30T00:11:14.449Z,0.90
2022-08-30T00:13:44.764Z,0.95
2022-08-30T00:16:12.721Z,0.50
2022-08-30T00:18:40.956Z,0.70
2022-08-30T00:21:10.321Z,0.70
2022-08-30T00:23:38.401Z,0.63
2022-08-30T00:26:06.557Z,0.80
2022-08-30T00:28:34.116Z,0.73
2022-08-30T00:31:02.205Z,0.65
2022-08-30T00:33:29.819Z,0.65
2022-08-30T00:35:57.059Z,0.55
2022-08-30T00:38:24.309Z,0.70
2022-08-30T00:40:52.226Z,0.70
2022-08-30T00:43:25.851Z,0.70
2022-08-30T00:45:56.089Z,0.70
2022-08-30T00:48:23.656Z,0.70
2022-08-30T00:50:57.588Z,0.70
2022-08-30T00:53:32.032Z,0.70
2022-08-30T00:56:00.558Z,0.70
2022-08-30T00:58:50.864Z,1.00
2022-08-30T01:01:18.391Z,0.70
2022-08-30T01:03:46.579Z,0.70
2022-08-30T01:06:15.794Z,0.70
2022-08-30T01:08:43.682Z,0.57
2022-08-30T01:11:12.420Z,0.60
2022-08-30T01:13:40.731Z,0.57
2022-08-30T01:16:08.461Z,0.50
2022-08-30T01:18:37.144Z,0.52
2022-08-30T01:21:24.172Z,1.00
2022-08-30T01:23:54.072Z,0.70
2022-08-30T01:26:22.265Z,0.55
2022-08-30T01:28:55.342Z,0.70
2022-08-30T01:31:22.865Z,0.60
2022-08-30T01:33:51.102Z,0.77
2022-08-30T01:36:20.014Z,0.50
2022-08-30T01:38:53.035Z,0.80
2022-08-30T01:41:24.676Z,0.65
2022-08-30T01:43:54.016Z,0.70
2022-08-30T01:46:24.567Z,0.70
2022-08-30T01:48:54.291Z,0.70
2022-08-30T01:51:23.611Z,0.70
2022-08-30T01:53:51.017Z,1.13
2022-08-30T01:56:19.082Z,1.10
2022-08-30T01:58:46.751Z,0.75
2022-08-30T02:01:16.631Z,0.70
2022-08-30T02:03:46.650Z,0.68
2022-08-30T02:06:16.593Z,0.60
2022-08-30T02:08:44.693Z,0.60
2022-08-30T02:11:13.378Z,1.02
2022-08-30T02:13:41.729Z,0.95
2022-08-30T02:16:11.310Z,0.63
2022-08-30T02:18:39.849Z,0.70
2022-08-30T02:21:07.579Z,0.80
2022-08-30T02:23:35.214Z,0.70
2022-08-30T02:26:02.923Z,0.90
2022-08-30T02:28:29.846Z,0.75
2022-08-30T02:30:57.186Z,0.70
2022-08-30T02:33:24.170Z,0.85
2022-08-30T02:35:51.018Z,0.77
2022-08-30T02:38:19.929Z,0.70
2022-08-30T02:40:47.202Z,0.80
2022-08-30T02:43:14.207Z,0.82
2022-08-30T02:45:41.065Z,0.88
2022-08-30T02:48:08.228Z,0.60
2022-08-30T02:50:35.152Z,0.88
2022-08-30T02:53:01.994Z,0.65
2022-08-30T02:55:28.959Z,0.60
2022-08-30T02:57:55.737Z,0.73
2022-08-30T03:00:22.653Z,0.57
2022-08-30T03:02:49.657Z,0.80
2022-08-30T03:05:17.965Z,0.70
2022-08-30T03:07:46.434Z,0.75
2022-08-30T03:10:14.743Z,0.60
2022-08-30T03:12:42.048Z,0.70
2022-08-30T03:15:12.572Z,0.80
2022-08-30T03:17:40.677Z,0.80
2022-08-30T03:20:08.722Z,0.80
2022-08-30T03:22:35.972Z,0.70
2022-08-30T03:25:03.642Z,0.60
2022-08-30T03:27:32.189Z,0.52
2022-08-30T03:29:59.250Z,0.77
2022-08-30T03:32:26.258Z,0.80
2022-08-30T03:34:53.083Z,0.60
2022-08-30T03:37:23.270Z,0.50
2022-08-30T03:39:52.599Z,0.95
2022-08-30T03:42:20.093Z,0.93
2022-08-30T03:44:48.519Z,0.80
2022-08-30T03:47:15.442Z,0.70
2022-08-30T03:49:42.260Z,0.55
2022-08-30T03:52:09.112Z,0.60
2022-08-30T03:54:35.999Z,1.08
2022-08-30T03:57:04.950Z,0.65
2022-08-30T03:59:32.224Z,0.80
2022-08-30T04:01:59.309Z,0.57
2022-08-30T04:04:26.278Z,0.70
2022-08-30T04:06:54.408Z,0.60
2022-08-30T04:09:21.262Z,0.60
2022-08-30T04:11:48.138Z,0.88
2022-08-30T04:14:14.934Z,0.70
2022-08-30T04:16:41.971Z,0.55
2022-08-30T04:19:08.898Z,0.60
2022-08-30T04:21:42.807Z,0.50
2022-08-30T04:24:10.166Z,0.50
2022-08-30T04:26:37.101Z,0.50
2022-08-30T04:29:04.030Z,0.70
2022-08-30T04:31:31.474Z,0.60
2022-08-30T04:33:58.536Z,0.60
2022-08-30T04:36:25.441Z,0.55
2022-08-30T04:38:52.330Z,0.57
2022-08-30T04:41:20.911Z,0.70
2022-08-30T04:43:50.627Z,0.65
2022-08-30T04:46:19.123Z,0.90
2022-08-30T04:48:47.249Z,0.65
2022-08-30T04:51:17.880Z,0.70
2022-08-30T04:53:45.585Z,0.60
2022-08-30T04:56:20.143Z,0.85
2022-08-30T04:58:49.166Z,0.60
2022-08-30T05:01:20.049Z,0.68
2022-08-30T05:03:48.351Z,0.60
2022-08-30T05:06:16.325Z,0.73
2022-08-30T05:08:46.249Z,0.70
2022-08-30T05:11:15.486Z,0.80
2022-08-30T05:13:43.156Z,0.63
2022-08-30T05:16:10.415Z,0.65
2022-08-30T05:18:37.677Z,0.60
2022-08-30T05:21:12.978Z,0.60
2022-08-30T05:23:41.552Z,0.98
2022-08-30T05:26:11.944Z,0.40
2022-08-30T05:28:39.152Z,0.50
2022-08-30T05:31:17.989Z,0.60
2022-08-30T05:33:45.769Z,0.30
2022-08-30T05:36:14.242Z,0.55
2022-08-30T05:38:41.970Z,0.52
2022-08-30T05:41:10.929Z,0.60
2022-08-30T05:43:38.630Z,0.70
2022-08-30T05:46:11.687Z,0.60
2022-08-30T05:48:39.992Z,0.60
2022-08-30T05:51:11.549Z,0.50
2022-08-30T05:53:39.959Z,0.60
2022-08-30T05:56:10.257Z,0.60
2022-08-30T05:58:37.178Z,0.50
2022-08-30T06:01:04.602Z,0.30
2022-08-30T06:03:34.831Z,0.50
2022-08-30T06:06:03.668Z,0.40
2022-08-30T06:08:30.604Z,0.70
2022-08-30T06:10:57.458Z,0.40
2022-08-30T06:13:24.298Z,0.50
2022-08-30T06:15:52.687Z,0.68
2022-08-30T06:18:19.909Z,0.60
2022-08-30T06:20:55.373Z,0.40
2022-08-30T06:23:22.891Z,0.43
2022-08-30T06:25:49.893Z,0.50
2022-08-30T06:28:17.232Z,0.47
2022-08-30T06:30:44.452Z,0.40
2022-08-30T06:33:11.977Z,0.40
2022-08-30T06:35:56.766Z,0.40
2022-08-30T06:38:26.002Z,0.40
2022-08-30T06:40:52.785Z,0.40
2022-08-30T06:43:19.803Z,0.40
2022-08-30T06:45:46.611Z,0.40
2022-08-30T06:48:13.531Z,0.35
2022-08-30T06:50:42.151Z,0.40
2022-08-30T06:53:10.033Z,0.60
2022-08-30T06:55:37.388Z,0.50
2022-08-30T06:58:05.421Z,0.40
2022-08-30T07:00:32.308Z,0.50
2022-08-30T07:02:59.326Z,0.35
2022-08-30T07:05:26.224Z,0.60
2022-08-30T07:07:54.271Z,0.40
2022-08-30T07:10:21.586Z,0.45
2022-08-30T07:12:49.176Z,0.40
2022-08-30T07:15:16.312Z,0.40
2022-08-30T07:18:01.930Z,0.40
2022-08-30T07:20:40.096Z,0.70
2022-08-30T07:23:08.381Z,0.60
2022-08-30T07:25:37.019Z,0.32
2022-08-30T07:28:05.540Z,0.80
2022-08-30T07:30:33.075Z,0.65
2022-08-30T07:33:00.228Z,0.90
2022-08-30T07:35:27.150Z,0.88
2022-08-30T07:37:53.997Z,0.70
2022-08-30T07:40:21.054Z,0.60
2022-08-30T07:42:47.902Z,1.00
2022-08-30T07:45:15.101Z,0.90
2022-08-30T07:47:42.102Z,0.68
2022-08-30T07:50:09.812Z,0.70
2022-08-30T07:55:06.329Z,1.17
2022-08-30T07:57:37.635Z,0.80
2022-08-30T08:00:06.214Z,0.80
2022-08-30T08:02:33.772Z,0.82
2022-08-30T08:05:00.880Z,1.02
2022-08-30T08:07:27.764Z,1.20
2022-08-30T08:09:54.639Z,1.27
2022-08-30T08:12:21.886Z,1.10
2022-08-30T08:14:48.707Z,1.35
2022-08-30T08:17:16.493Z,1.33
2022-08-30T08:19:43.302Z,1.00
2022-08-30T08:22:25.747Z,1.50
2022-08-30T08:24:52.688Z,0.90
2022-08-30T08:27:19.592Z,1.40
2022-08-30T08:29:46.382Z,1.20
2022-08-30T08:32:13.179Z,1.60
2022-08-30T08:34:41.511Z,1.33
2022-08-30T08:37:08.454Z,1.17
2022-08-30T08:39:35.306Z,1.00
2022-08-30T08:42:25.275Z,1.42
2022-08-30T08:45:11.786Z,1.45
2022-08-30T08:48:04.224Z,1.30
2022-08-30T08:50:31.697Z,1.40
2022-08-30T08:53:45.407Z,1.52
2022-08-30T08:56:17.022Z,1.00
2022-08-30T08:58:52.753Z,1.30
2022-08-30T09:01:26.119Z,1.27
2022-08-30T09:03:53.401Z,1.20
2022-08-30T09:06:38.200Z,1.10
2022-08-30T09:09:12.459Z,1.10
2022-08-30T09:11:41.639Z,1.30
2022-08-30T09:14:19.312Z,0.90
2022-08-30T09:16:51.641Z,1.10
2022-08-30T09:19:35.005Z,1.10
2022-08-30T09:22:26.667Z,1.00
2022-08-30T09:25:00.692Z,1.10
2022-08-30T09:27:31.097Z,1.08
2022-08-30T09:30:16.683Z,1.48
2022-08-30T09:32:55.346Z,1.10
2022-08-30T09:35:46.781Z,1.67
2022-08-30T09:38:23.931Z,1.73
2022-08-30T09:40:57.116Z,1.20
2022-08-30T09:43:30.586Z,1.08
2022-08-30T09:46:01.060Z,1.02
2022-08-30T09:48:47.679Z,1.30
2022-08-30T09:51:40.360Z,1.10
2022-08-30T09:54:20.105Z,0.98
2022-08-30T09:57:18.905Z,1.27
2022-08-30T10:00:00.421Z,1.38
2022-08-30T10:02:42.379Z,1.38
2022-08-30T10:05:12.231Z,1.15
2022-08-30T10:07:48.106Z,1.42
2022-08-30T10:10:18.394Z,1.30
2022-08-30T10:13:14.558Z,1.30
2022-08-30T10:16:17.942Z,1.17
2022-08-30T10:19:08.705Z,1.00
2022-08-30T10:21:39.663Z,1.27
2022-08-30T10:24:13.058Z,1.15
2022-08-30T10:27:07.289Z,0.90
2022-08-30T10:29:46.190Z,1.10
2022-08-30T10:32:32.347Z,1.10
2022-08-30T10:35:19.166Z,1.23
2022-08-30T10:38:01.917Z,1.80
2022-08-30T10:40:56.792Z,1.10
2022-08-30T10:43:39.034Z,1.15
2022-08-30T10:46:22.561Z,1.00
2022-08-30T10:48:49.524Z,0.90
2022-08-30T10:51:44.741Z,0.85
2022-08-30T10:54:41.927Z,1.17
2022-08-30T10:57:09.726Z,1.25
2022-08-30T10:59:42.761Z,1.20
2022-08-30T11:02:28.035Z,0.95
2022-08-30T11:05:11.681Z,1.15
2022-08-30T11:07:44.392Z,1.08
2022-08-30T11:10:14.983Z,1.15
2022-08-30T11:13:09.891Z,1.40
2022-08-30T11:15:53.287Z,1.30
2022-08-30T11:18:21.305Z,1.40
2022-08-30T11:20:53.891Z,1.30
2022-08-30T11:23:33.960Z,1.40
2022-08-30T11:26:08.969Z,1.48
2022-08-30T11:28:46.483Z,1.23
2022-08-30T11:31:22.570Z,1.20
2022-08-30T11:34:00.855Z,1.55
2022-08-30T11:36:37.483Z,1.60
2022-08-30T11:39:11.098Z,1.35
2022-08-30T11:41:47.758Z,1.45
2022-08-30T11:44:20.877Z,1.30
2022-08-30T11:46:49.723Z,1.42
2022-08-30T11:49:19.479Z,1.15
2022-08-30T11:52:27.614Z,1.60
2022-08-30T11:55:16.693Z,1.50
2022-08-30T11:58:05.743Z,1.00
2022-08-30T12:00:37.276Z,1.27
2022-08-30T12:03:16.713Z,1.08
2022-08-30T12:05:51.405Z,1.60
2022-08-30T12:08:21.203Z,1.50
2022-08-30T12:10:56.303Z,1.55
2022-08-30T12:13:38.306Z,1.48
2022-08-30T12:16:59.332Z,1.40
2022-08-30T12:19:27.006Z,1.13
2022-08-30T12:22:00.296Z,1.00
2022-08-30T12:24:40.115Z,1.30
2022-08-30T12:27:32.424Z,1.30
2022-08-30T12:30:06.988Z,1.30
2022-08-30T12:32:42.647Z,1.02
2022-08-30T12:35:20.751Z,1.40
2022-08-30T12:37:58.803Z,1.20
2022-08-30T12:40:26.859Z,1.30
2022-08-30T12:43:04.825Z,0.93
2022-08-30T12:45:40.116Z,1.10
2022-08-30T12:48:11.211Z,1.10
2022-08-30T12:50:54.524Z,1.35
2022-08-30T12:53:37.048Z,1.15
2022-08-30T12:56:21.161Z,1.17
2022-08-30T12:58:57.310Z,1.23
2022-08-30T13:01:32.283Z,1.25
2022-08-30T13:04:20.440Z,1.20
2022-08-30T13:06:53.244Z,1.20
2022-08-30T13:09:32.253Z,1.27
2022-08-30T13:12:01.538Z,1.15
2022-08-30T13:14:35.993Z,1.38
2022-08-30T13:17:25.736Z,1.38
2022-08-30T13:20:02.443Z,1.85
2022-08-30T13:22:35.338Z,1.63
2022-08-30T13:25:03.150Z,1.10
2022-08-30T13:27:31.179Z,1.10
2022-08-30T13:30:13.373Z,0.98
2022-08-30T13:32:40.948Z,0.70
2022-08-30T13:35:08.872Z,1.17
2022-08-30T13:37:49.330Z,0.80
2022-08-30T13:40:20.642Z,0.80
2022-08-30T13:42:48.006Z,1.40
2022-08-30T13:48:04.184Z,1.50
2022-08-30T13:50:31.224Z,1.42
2022-08-30T13:52:58.448Z,1.30
2022-08-30T13:55:25.631Z,1.20
2022-08-30T13:57:54.580Z,1.27
2022-08-30T14:00:24.997Z,1.10
2022-08-30T14:02:57.438Z,1.48
2022-08-30T14:05:49.352Z,1.20
2022-08-30T14:11:12.953Z,1.40
2022-08-30T14:14:14.715Z,1.30
2022-08-30T14:16:28.562Z,1.10
2022-08-30T14:18:56.593Z,1.05
2022-08-30T14:21:24.657Z,0.98
2022-08-30T14:23:53.242Z,1.40
2022-08-30T14:26:32.936Z,1.50
2022-08-30T14:29:01.859Z,1.40
2022-08-30T14:31:32.470Z,1.20
2022-08-30T14:34:01.757Z,1.63
2022-08-30T14:36:31.081Z,1.52
2022-08-30T14:38:58.469Z,1.25
2022-08-30T14:41:25.715Z,1.00
2022-08-30T14:43:53.119Z,1.13
2022-08-30T14:46:22.051Z,1.40
2022-08-30T14:48:50.275Z,1.30
2022-08-30T14:51:19.863Z,1.30
2022-08-30T14:53:47.179Z,1.42
2022-08-30T14:56:19.479Z,1.20
2022-08-30T14:58:49.840Z,1.40
2022-08-30T15:01:17.572Z,1.17
2022-08-30T15:03:44.559Z,1.30
2022-08-30T15:06:11.602Z,1.00
2022-08-30T15:08:39.292Z,0.95
2022-08-30T15:11:15.019Z,2.20
2022-08-30T15:13:44.798Z,2.53
2022-08-30T15:16:21.807Z,1.20
2022-08-30T15:18:49.000Z,0.70
2022-08-30T15:21:30.709Z,0.65
2022-08-30T15:23:59.353Z,1.08
2022-08-30T15:26:28.291Z,0.70
2022-08-30T15:28:55.871Z,0.70
2022-08-30T15:31:28.527Z,0.77
2022-08-30T15:33:56.554Z,0.80
2022-08-30T15:36:25.081Z,0.60
2022-08-30T15:38:59.468Z,0.68
2022-08-30T15:41:27.587Z,0.60
2022-08-30T15:43:57.830Z,0.63
2022-08-30T15:46:36.383Z,0.65
2022-08-30T15:49:19.742Z,0.40
2022-08-30T15:51:51.582Z,0.50
2022-08-30T15:54:23.366Z,1.10
2022-08-30T15:56:51.525Z,0.70
2022-08-30T15:59:19.343Z,0.63
2022-08-30T16:01:47.594Z,0.90
2022-08-30T16:04:17.155Z,0.80
2022-08-30T16:06:46.442Z,0.80
2022-08-30T16:09:13.951Z,0.70
2022-08-30T16:11:41.082Z,0.90
2022-08-30T16:14:08.892Z,1.10
2022-08-30T16:16:37.814Z,0.90
2022-08-30T16:19:07.210Z,0.90
2022-08-30T16:21:37.383Z,0.80
2022-08-30T16:24:06.998Z,0.85
2022-08-30T16:26:35.655Z,1.15
2022-08-30T16:29:04.246Z,1.02
2022-08-30T16:31:35.098Z,0.90
2022-08-30T16:34:04.313Z,1.00
2022-08-30T16:36:32.244Z,0.90
2022-08-30T16:38:59.754Z,0.70
2022-08-30T16:41:27.128Z,1.00
2022-08-30T16:43:55.418Z,0.80
2022-08-30T16:46:27.741Z,1.08
2022-08-30T16:48:59.263Z,1.00
2022-08-30T16:51:27.903Z,1.10
2022-08-30T16:53:56.735Z,1.08
2022-08-30T16:56:26.879Z,1.00
2022-08-30T16:59:01.234Z,0.90
2022-08-30T17:01:30.139Z,0.80
2022-08-30T17:03:57.049Z,0.88
2022-08-30T17:06:24.058Z,0.82
2022-08-30T17:08:55.767Z,0.98
2022-08-30T17:11:24.093Z,1.40
2022-08-30T17:13:51.168Z,1.10
2022-08-30T17:16:22.694Z,0.80
2022-08-30T17:18:55.548Z,1.25
2022-08-30T17:21:23.256Z,1.17
2022-08-30T17:23:51.168Z,0.80
2022-08-30T17:26:18.661Z,0.80
2022-08-30T17:28:45.808Z,0.65
2022-08-30T17:31:14.736Z,0.70
2022-08-30T17:33:45.518Z,0.70
2022-08-30T17:36:12.981Z,0.90
2022-08-30T17:38:45.189Z,0.75
2022-08-30T17:41:13.047Z,0.60
2022-08-30T17:43:40.660Z,0.70
2022-08-30T17:46:11.361Z,0.50
2022-08-30T17:48:39.188Z,0.70
2022-08-30T17:51:08.004Z,0.50
2022-08-30T17:53:35.729Z,0.60
2022-08-30T17:56:04.676Z,0.55
2022-08-30T17:58:32.523Z,0.40
2022-08-30T18:01:12.205Z,0.60
2022-08-30T18:03:40.056Z,0.50
2022-08-30T18:06:07.400Z,0.68
2022-08-30T18:08:35.323Z,0.40
2022-08-30T18:11:04.409Z,0.30
2022-08-30T18:13:33.529Z,0.40
2022-08-30T18:16:03.167Z,0.30
2022-08-30T18:18:30.903Z,0.30
2022-08-30T18:20:59.122Z,0.40
2022-08-30T18:23:26.965Z,0.40
2022-08-30T18:26:00.829Z,0.30
2022-08-30T18:28:29.556Z,0.40
2022-08-30T18:30:59.531Z,0.50
2022-08-30T18:33:28.601Z,0.52
2022-08-30T18:35:56.245Z,0.50
2022-08-30T18:38:24.068Z,0.52
2022-08-30T18:40:52.817Z,0.40
2022-08-30T18:43:24.483Z,0.43
2022-08-30T18:46:01.610Z,0.63
2022-08-30T18:48:30.076Z,0.57
2022-08-30T18:50:57.048Z,0.60
2022-08-30T18:53:28.301Z,0.50
2022-08-30T18:55:56.872Z,0.75
2022-08-30T18:58:23.835Z,0.45
2022-08-30T19:00:50.981Z,0.55
2022-08-30T19:03:18.782Z,0.50
2022-08-30T19:05:46.298Z,0.43
2022-08-30T19:08:13.696Z,0.50
2022-08-30T19:10:41.329Z,0.55
2022-08-30T19:13:08.387Z,0.40
2022-08-30T19:15:35.737Z,0.60
2022-08-30T19:18:16.811Z,0.50
2022-08-30T19:20:45.631Z,0.40
2022-08-30T19:23:14.373Z,0.40
2022-08-30T19:25:42.220Z,0.65
2022-08-30T19:28:10.340Z,0.55
2022-08-30T19:30:37.677Z,0.50
2022-08-30T19:33:05.737Z,0.50
2022-08-30T19:35:33.293Z,0.40
2022-08-30T19:38:00.553Z,0.47
2022-08-30T19:40:28.554Z,0.40
2022-08-30T19:42:55.682Z,0.40
2022-08-30T19:45:23.469Z,0.45
2022-08-30T19:47:51.415Z,0.40
2022-08-30T19:50:18.354Z,0.30
2022-08-30T19:52:52.726Z,0.38
2022-08-30T19:55:23.770Z,0.40
2022-08-30T19:57:56.470Z,0.50
2022-08-30T20:00:23.576Z,0.40
2022-08-30T20:02:51.250Z,0.50
2022-08-30T20:05:19.149Z,0.50
2022-08-30T20:07:48.398Z,0.52
2022-08-30T20:10:19.918Z,0.50
2022-08-30T20:12:49.563Z,0.60
2022-08-30T20:15:18.224Z,0.60
2022-08-30T20:18:03.211Z,0.60
2022-08-30T20:20:33.263Z,0.50
2022-08-30T20:23:00.523Z,0.40
2022-08-30T20:25:29.353Z,0.50
2022-08-30T20:27:56.255Z,0.65
2022-08-30T20:30:23.085Z,0.40
2022-08-30T20:32:50.052Z,0.50
2022-08-30T20:35:17.773Z,0.40
2022-08-30T20:37:45.120Z,0.40
2022-08-30T20:40:15.958Z,0.50
2022-08-30T20:42:45.786Z,0.73
2022-08-30T20:45:15.248Z,0.73
2022-08-30T20:47:43.191Z,0.60
2022-08-30T20:50:14.084Z,0.60
2022-08-30T20:52:41.691Z,0.50
2022-08-30T20:55:10.106Z,0.50
2022-08-30T20:57:37.158Z,0.50
2022-08-30T21:00:11.015Z,0.68
2022-08-30T21:02:42.746Z,0.65
2022-08-30T21:05:15.651Z,0.47
2022-08-30T21:07:46.498Z,0.40
2022-08-30T21:10:14.614Z,0.50
2022-08-30T21:12:42.902Z,0.50
2022-08-30T21:15:34.006Z,0.60
2022-08-30T21:17:57.513Z,0.55
2022-08-30T21:20:24.311Z,0.60
2022-08-30T21:22:51.200Z,0.50
2022-08-30T21:25:18.699Z,0.40
2022-08-30T21:27:45.623Z,0.50
2022-08-30T21:30:13.976Z,0.57
2022-08-30T21:32:41.288Z,0.50
2022-08-30T21:35:27.815Z,0.50
2022-08-30T21:37:55.439Z,0.63
2022-08-30T21:40:22.637Z,0.50
2022-08-30T21:42:49.519Z,0.50
2022-08-30T21:45:16.618Z,0.40
2022-08-30T21:47:43.960Z,0.50
2022-08-30T21:50:11.952Z,0.40
2022-08-30T21:52:39.039Z,0.50
2022-08-30T21:55:06.319Z,0.50
2022-08-30T21:57:33.184Z,0.40
2022-08-30T22:00:00.109Z,0.52
2022-08-30T22:02:27.593Z,0.40
2022-08-30T22:04:54.735Z,0.60
2022-08-30T22:07:21.559Z,0.70
2022-08-30T22:09:48.525Z,0.50
2022-08-30T22:12:15.339Z,0.50
2022-08-30T22:14:43.009Z,0.50
2022-08-30T22:17:10.037Z,0.50
2022-08-30T22:19:36.898Z,0.40
2022-08-30T22:22:03.947Z,0.65
2022-08-30T22:24:32.470Z,0.40
2022-08-30T22:27:01.309Z,0.50
2022-08-30T22:29:28.977Z,0.45
2022-08-30T22:31:55.941Z,0.50
2022-08-30T22:34:23.027Z,0.55
2022-08-30T22:36:49.820Z,0.52
2022-08-30T22:39:16.798Z,0.50
2022-08-30T22:41:44.239Z,0.30
2022-08-30T22:44:11.813Z,0.50
2022-08-30T22:46:39.155Z,0.40
2022-08-30T22:49:08.316Z,0.50
2022-08-30T22:51:35.885Z,0.50
2022-08-30T22:54:04.241Z,0.60
2022-08-30T22:56:32.752Z,0.57
2022-08-30T22:58:59.700Z,0.50
2022-08-30T23:01:32.409Z,0.40
2022-08-30T23:04:01.185Z,0.40
2022-08-30T23:06:29.144Z,0.40
2022-08-30T23:08:56.209Z,0.50
2022-08-30T23:11:23.843Z,0.40
2022-08-30T23:13:51.094Z,0.45
2022-08-30T23:16:18.624Z,0.43
2022-08-30T23:18:46.569Z,0.50
2022-08-30T23:21:26.250Z,0.40
2022-08-30T23:24:13.885Z,0.40
2022-08-30T23:27:00.499Z,0.60
2022-08-30T23:29:46.483Z,0.47
2022-08-30T23:32:32.029Z,0.40
2022-08-30T23:35:17.350Z,0.40
2022-08-30T23:38:02.668Z,0.40
2022-08-30T23:40:48.679Z,0.50
2022-08-30T23:43:34.084Z,0.30
2022-08-30T23:46:19.820Z,0.50
2022-08-30T23:49:10.051Z,0.43
2022-08-30T23:51:56.432Z,0.50
2022-08-30T23:54:42.814Z,0.50
2022-08-30T23:57:28.044Z,0.43
